Time;durP1;ratioP1;P1;durP2;ratioP2;P2;SDS_P1;SDS_P2;PMS_P1;PMS_P2;Temp;Humidity;BMP_temperature;BMP_pressure;BME280_temperature;BME280_humidity;BME280_pressure;Samples;Min_cycle;Max_cycle;Signal;HPM_P1;HPM_P2
2022/08/06 00:02:58;;;;;;;8.50;3.85;;;;;;;23.08;60.64;100013.94;5550968;32;32845;-68
2022/08/06 00:06:01;;;;;;;7.20;3.50;;;;;;;23.03;60.54;100012.00;5551502;32;33755;-68
2022/08/06 00:09:04;;;;;;;7.78;4.40;;;;;;;23.00;60.72;100017.91;5551566;32;34081;-67
2022/08/06 00:12:07;;;;;;;5.87;3.80;;;;;;;23.11;61.80;100018.81;5551520;32;34055;-68
2022/08/06 00:15:12;;;;;;;9.35;4.10;;;;;;;23.10;61.43;100030.72;5550472;32;34049;-69
2022/08/06 00:18:16;;;;;;;10.50;4.25;;;;;;;23.01;62.41;100021.44;5551437;32;33911;-68
2022/08/06 00:21:20;;;;;;;5.32;3.85;;;;;;;22.97;62.66;100023.84;5551365;32;34650;-68
2022/08/06 00:24:43;;;;;;;8.90;3.80;;;;;;;22.90;63.17;100021.34;5551345;32;33904;-68
2022/08/06 00:27:46;;;;;;;8.68;3.85;;;;;;;22.81;63.96;100022.88;5549901;32;34387;-69
2022/08/06 00:30:54;;;;;;;6.05;4.07;;;;;;;22.76;64.63;100027.44;5550666;32;34122;-68
2022/08/06 00:34:02;;;;;;;4.93;3.92;;;;;;;22.74;64.27;100024.19;5551302;32;34742;-68
2022/08/06 00:37:06;;;;;;;5.15;3.80;;;;;;;22.66;64.13;100027.28;5551354;32;34636;-68
2022/08/06 00:40:21;;;;;;;7.72;3.90;;;;;;;22.62;64.17;100026.19;5551256;32;34625;-68
2022/08/06 00:43:26;;;;;;;7.07;3.92;;;;;;;22.64;63.29;100030.28;5550432;32;34463;-67
2022/08/06 00:46:43;;;;;;;5.70;4.10;;;;;;;22.60;63.06;100028.34;5550466;32;34350;-68
2022/08/06 00:49:46;;;;;;;9.55;3.97;;;;;;;22.52;62.73;100030.41;5550440;32;34601;-68
2022/08/06 00:52:52;;;;;;;10.63;4.00;;;;;;;22.62;61.59;100026.19;5550202;32;33302;-68
2022/08/06 00:55:55;;;;;;;7.93;3.80;;;;;;;22.51;61.01;100023.37;5551101;32;33989;-68
2022/08/06 00:59:04;;;;;;;7.87;3.67;;;;;;;22.53;60.47;100026.66;5550159;32;34192;-68
2022/08/06 01:02:12;;;;;;;6.82;3.80;;;;;;;22.63;59.16;100023.22;5550279;32;33936;-68
2022/08/06 01:05:16;;;;;;;5.55;3.78;;;;;;;22.61;59.20;100027.28;5550300;32;34589;-68
2022/08/06 01:08:39;;;;;;;8.90;3.53;;;;;;;22.52;59.51;100019.59;5550933;32;34620;-68
2022/08/06 01:11:43;;;;;;;6.32;3.83;;;;;;;22.41;59.90;100020.56;5551030;32;34016;-68
2022/08/06 01:14:46;;;;;;;6.90;3.85;;;;;;;22.32;60.05;100026.66;5551004;32;34597;-68
2022/08/06 01:18:08;;;;;;;7.25;3.78;;;;;;;22.23;60.28;100020.91;5550784;32;34311;-68
2022/08/06 01:21:20;;;;;;;4.40;3.62;;;;;;;22.19;60.47;100029.75;5550965;32;33936;-68
2022/08/06 01:25:10;;;;;;;7.72;3.33;;;;;;;22.16;61.19;100020.28;5550877;32;34767;-68
2022/08/06 01:28:20;;;;;;;6.37;3.40;;;;;;;22.18;61.32;100014.59;5550698;32;35436;-68
2022/08/06 01:31:41;;;;;;;6.10;3.62;;;;;;;22.16;61.17;100014.06;5551095;32;34843;-68
2022/08/06 01:34:58;;;;;;;12.05;3.80;;;;;;;22.11;61.56;100012.12;5549525;32;33889;-68
2022/08/06 01:38:07;;;;;;;11.27;3.90;;;;;;;22.05;62.14;100018.53;5549958;32;34883;-68
2022/08/06 01:41:38;;;;;;;;;;;;;;;21.97;62.36;100016.25;5550991;32;34620;-68
2022/08/06 01:45:00;;;;;;;9.43;4.12;;;;;;;21.87;63.01;100008.81;5550797;32;34267;-68
2022/08/06 01:48:09;;;;;;;6.68;3.70;;;;;;;21.81;63.31;100012.50;5550807;32;33961;-68
2022/08/06 01:51:14;;;;;;;;;;;;;;;21.77;63.47;100013.25;5550962;32;34726;-68
2022/08/06 01:54:42;;;;;;;8.52;3.90;;;;;;;21.75;63.62;100008.09;5550712;32;34930;-68
2022/08/06 01:57:55;;;;;;;5.50;3.58;;;;;;;21.75;63.86;100010.81;5550500;32;35193;-68
2022/08/06 02:01:20;;;;;;;10.75;4.30;;;;;;;21.74;64.06;100022.66;5550535;32;34043;-68
2022/08/06 02:04:27;;;;;;;8.23;3.87;;;;;;;21.69;64.02;100015.31;5549972;32;34547;-68
2022/08/06 02:07:36;;;;;;;6.35;3.85;;;;;;;21.65;64.52;100022.28;5550536;32;35316;-68
2022/08/06 02:11:01;;;;;;;5.68;3.75;;;;;;;21.60;65.14;100016.81;5550445;32;34007;-68
2022/08/06 02:14:32;;;;;;;4.90;3.85;;;;;;;21.53;65.81;100018.06;5550036;32;34208;-68
2022/08/06 02:17:45;;;;;;;8.25;4.03;;;;;;;21.51;66.14;100018.31;5550417;32;34673;-68
2022/08/06 02:21:10;;;;;;;8.25;4.37;;;;;;;21.52;66.87;100024.53;5550352;32;34673;-68
2022/08/06 02:24:24;;;;;;;8.02;4.18;;;;;;;21.42;67.94;100017.09;5550317;32;34648;-68
2022/08/06 02:27:29;;;;;;;5.35;4.05;;;;;;;21.36;68.52;100019.94;5550321;32;33958;-68
2022/08/06 02:30:55;;;;;;;7.00;4.32;;;;;;;21.33;68.64;100017.75;5550257;32;33875;-68
2022/08/06 02:33:58;;;;;;;7.90;4.28;;;;;;;21.32;68.76;100021.50;5550285;32;33397;-68
2022/08/06 02:37:15;;;;;;;6.53;4.15;;;;;;;21.30;68.88;100021.75;5550064;32;34866;-68
2022/08/06 02:40:44;;;;;;;5.20;4.05;;;;;;;21.38;69.21;100017.84;5550172;32;33810;-68
2022/08/06 02:43:54;;;;;;;5.80;3.80;;;;;;;21.35;69.45;100018.34;5550140;32;34660;-68
2022/08/06 02:47:16;;;;;;;6.53;3.97;;;;;;;21.34;69.14;100024.78;5548866;32;33946;-68
2022/08/06 02:50:29;;;;;;;4.72;3.67;;;;;;;21.28;70.56;100023.06;5549330;32;34604;-68
2022/08/06 02:53:42;;;;;;;8.77;4.80;;;;;;;21.21;69.92;100015.97;5549849;32;33972;-68
2022/08/06 02:57:10;;;;;;;6.95;4.10;;;;;;;21.21;69.54;100026.75;5550256;32;34488;-68
2022/08/06 03:00:16;;;;;;;4.85;3.92;;;;;;;21.27;69.69;100018.72;5549893;32;34016;-68
2022/08/06 03:03:22;;;;;;;7.60;4.15;;;;;;;21.22;69.85;100020.28;5549041;32;35234;-68
2022/08/06 03:06:40;;;;;;;6.82;4.18;;;;;;;21.18;69.95;100023.72;5549740;32;33884;-68
2022/08/06 03:09:47;;;;;;;5.45;3.92;;;;;;;21.14;70.27;100030.69;5549678;32;34479;-68
2022/08/06 03:12:54;;;;;;;5.68;3.85;;;;;;;21.13;70.66;100021.78;5549647;32;34527;-69
2022/08/06 03:16:00;;;;;;;5.82;3.53;;;;;;;21.44;68.70;100020.37;5549987;32;33980;-68
2022/08/06 03:19:04;;;;;;;6.35;3.67;;;;;;;21.57;68.60;100017.31;5549541;32;34008;-68
2022/08/06 03:22:30;;;;;;;6.93;4.05;;;;;;;21.41;69.70;100026.25;5548872;32;35247;-68
2022/08/06 03:25:43;;;;;;;6.12;3.80;;;;;;;21.28;70.08;100015.81;5549495;32;33934;-68
2022/08/06 03:28:49;;;;;;;6.60;3.60;;;;;;;21.21;70.80;100031.31;5548689;32;34400;-68
2022/08/06 03:31:53;;;;;;;5.82;4.03;;;;;;;21.29;68.22;100028.25;5548509;32;34118;-68
2022/08/06 03:35:17;;;;;;;5.72;3.65;;;;;;;21.38;67.52;100025.94;5548920;32;34012;-68
2022/08/06 03:38:46;;;;;;;5.72;3.70;;;;;;;21.34;67.97;100032.88;5549132;32;34180;-68
2022/08/06 03:41:57;;;;;;;11.00;3.70;;;;;;;21.32;68.21;100033.13;5549019;32;35442;-68
2022/08/06 03:45:11;;;;;;;6.05;3.60;;;;;;;21.31;65.87;100036.06;5549114;32;34445;-67
2022/08/06 03:48:39;;;;;;;5.57;3.42;;;;;;;21.58;62.47;100037.84;5548284;32;34017;-67
2022/08/06 03:51:45;;;;;;;8.63;3.97;;;;;;;21.62;61.92;100035.47;5548913;32;34658;-67
2022/08/06 03:55:01;;;;;;;5.22;3.33;;;;;;;21.59;62.44;100041.38;5548930;32;34202;-68
2022/08/06 03:58:10;;;;;;;7.37;3.87;;;;;;;21.45;62.80;100030.09;5550679;32;35208;-68
2022/08/06 04:01:26;;;;;;;5.10;3.30;;;;;;;21.40;63.44;100029.19;5550891;32;34575;-68
2022/08/06 04:04:32;;;;;;;7.80;4.07;;;;;;;21.30;63.17;100035.25;5551642;32;34007;-68
2022/08/06 04:07:35;;;;;;;5.18;3.55;;;;;;;21.30;64.39;100035.25;5551056;32;34240;-68
2022/08/06 04:10:58;;;;;;;7.28;3.92;;;;;;;21.24;64.76;100039.75;5551450;32;34364;-68
2022/08/06 04:14:02;;;;;;;5.60;4.00;;;;;;;21.29;65.70;100041.72;5538250;32;34047;-68
2022/08/06 04:17:11;;;;;;;5.55;3.40;;;;;;;21.43;66.03;100045.72;5551527;32;33942;-68
2022/08/06 04:20:20;;;;;;;5.15;3.55;;;;;;;21.48;66.29;100053.91;5551329;32;34000;-68
2022/08/06 04:23:43;;;;;;;7.15;4.10;;;;;;;21.77;64.71;100056.47;5551253;32;34650;-68
2022/08/06 04:26:49;;;;;;;7.68;3.90;;;;;;;21.64;65.35;100053.03;5551389;32;33979;-68
2022/08/06 04:29:54;;;;;;;6.12;3.50;;;;;;;21.68;66.58;100059.59;5551265;32;33225;-68
2022/08/06 04:33:06;;;;;;;11.07;4.00;;;;;;;21.73;65.48;100064.25;5551374;32;34554;-68
2022/08/06 04:36:14;;;;;;;4.95;3.70;;;;;;;21.80;64.66;100064.06;5551647;32;34714;-67
2022/08/06 04:39:27;;;;;;;11.23;4.45;;;;;;;21.92;64.89;100075.59;5550597;32;32396;-68
2022/08/06 04:42:50;;;;;;;4.95;3.37;;;;;;;21.95;63.72;100062.44;5550676;32;34083;-68
2022/08/06 04:45:54;;;;;;;8.23;3.92;;;;;;;22.03;64.11;100074.66;5551450;32;34233;-68
2022/08/06 04:49:18;;;;;;;8.38;3.75;;;;;;;22.08;64.14;100069.34;5551041;32;34019;-68
2022/08/06 04:52:25;;;;;;;9.10;3.40;;;;;;;22.18;63.95;100072.16;5551089;32;33963;-68
2022/08/06 04:55:48;;;;;;;5.15;3.28;;;;;;;22.28;63.64;100076.88;5551101;32;34113;-68
2022/08/06 04:59:06;;;;;;;8.35;3.60;;;;;;;22.39;63.60;100076.78;5550317;32;34046;-67
2022/08/06 05:02:09;;;;;;;4.12;3.55;;;;;;;22.43;63.47;100083.31;5550818;32;33906;-67
2022/08/06 05:05:16;;;;;;;4.55;3.50;;;;;;;22.44;62.34;100076.81;5550602;32;34571;-67
2022/08/06 05:08:26;;;;;;;4.15;3.17;;;;;;;22.56;61.67;100081.28;5537158;32;33461;-68
2022/08/06 05:11:40;;;;;;;5.87;3.60;;;;;;;22.70;61.14;100079.81;5550903;32;34546;-68
2022/08/06 05:15:15;;;;;;;6.10;3.37;;;;;;;22.81;61.38;100085.09;5550872;32;34031;-67
2022/08/06 05:18:28;;;;;;;4.22;3.10;;;;;;;22.96;60.13;100082.56;5551209;32;34193;-67
2022/08/06 05:21:53;;;;;;;4.22;3.25;;;;;;;23.09;57.79;100080.50;5550874;32;33978;-67
2022/08/06 05:25:14;;;;;;;8.48;3.17;;;;;;;23.26;56.87;100081.19;5550837;32;33977;-68
2022/08/06 05:28:24;;;;;;;4.00;3.03;;;;;;;23.38;56.73;100076.44;5549842;32;35252;-67
2022/08/06 05:31:34;;;;;;;7.90;3.62;;;;;;;23.47;55.81;100079.50;5549839;32;34222;-67
2022/08/06 05:34:46;;;;;;;7.05;3.00;;;;;;;23.73;55.74;100078.59;5550604;32;34105;-67
2022/08/06 05:37:53;;;;;;;4.50;3.03;;;;;;;23.86;54.44;100078.16;5550251;32;33998;-67
2022/08/06 05:41:11;;;;;;;7.82;3.35;;;;;;;23.94;54.65;100085.78;5550487;32;33915;-67
2022/08/06 05:44:15;;;;;;;5.82;3.33;;;;;;;24.05;53.52;100082.03;5550454;32;33961;-67
2022/08/06 05:47:34;;;;;;;7.62;3.37;;;;;;;23.97;54.77;100093.38;5549878;32;33905;-67
2022/08/06 05:51:04;;;;;;;7.43;3.65;;;;;;;23.93;54.98;100097.69;5550853;32;35461;-67
2022/08/06 05:54:23;;;;;;;7.25;3.28;;;;;;;23.88;55.27;100096.81;5550623;32;35229;-66
2022/08/06 05:57:42;;;;;;;4.40;3.20;;;;;;;24.01;55.41;100101.81;5550597;32;34246;-67
2022/08/06 06:00:59;;;;;;;4.30;3.10;;;;;;;24.14;55.13;100102.16;5550762;32;34636;-68
2022/08/06 06:04:03;;;;;;;6.07;3.40;;;;;;;24.45;53.81;100105.00;5549981;32;34660;-66
2022/08/06 06:07:06;;;;;;;5.32;3.15;;;;;;;24.36;53.58;100103.88;5550183;32;33843;-66
2022/08/06 06:10:12;;;;;;;4.68;2.87;;;;;;;24.44;52.77;100100.69;5549440;32;32949;-66
2022/08/06 06:13:19;;;;;;;4.60;2.78;;;;;;;24.53;51.39;100112.66;5550347;32;33882;-66
2022/08/06 06:16:50;;;;;;;4.47;2.87;;;;;;;24.58;50.92;100109.94;5549322;32;34448;-65
2022/08/06 06:19:56;;;;;;;3.47;3.08;;;;;;;24.69;50.21;100111.59;5549924;32;34747;-63
2022/08/06 06:23:10;;;;;;;6.12;2.90;;;;;;;24.89;48.98;100114.41;5550138;32;34363;-66
2022/08/06 06:26:32;;;;;;;6.32;3.05;;;;;;;25.17;48.98;100102.25;5550586;32;34462;-65
2022/08/06 06:29:44;;;;;;;4.22;2.90;;;;;;;25.49;47.68;100110.94;5549906;32;34598;-64
2022/08/06 06:33:26;;;;;;;4.37;2.62;;;;;;;25.82;46.46;100114.19;5549548;32;32428;-65
2022/08/06 06:37:08;;;;;;;6.70;2.90;;;;;;;26.03;46.23;100117.69;5549288;32;34608;-67
2022/08/06 06:40:21;;;;;;;7.40;2.80;;;;;;;26.33;46.12;100118.44;5549248;32;33070;-66
2022/08/06 06:43:35;;;;;;;6.28;2.47;;;;;;;26.50;46.34;100120.00;5549888;32;33886;-66
2022/08/06 06:46:58;;;;;;;8.48;2.90;;;;;;;26.64;46.17;100127.28;5549866;32;34615;-67
2022/08/06 06:50:11;;;;;;;9.45;3.30;;;;;;;26.70;47.42;100122.63;5549979;32;34102;-66
2022/08/06 06:53:20;;;;;;;7.95;3.30;;;;;;;26.66;48.05;100133.25;5550201;32;34112;-66
2022/08/06 06:56:33;;;;;;;9.73;3.22;;;;;;;26.79;47.09;100129.09;5550136;32;35357;-66
2022/08/06 06:59:41;;;;;;;7.40;3.15;;;;;;;26.87;46.47;100131.25;5549677;32;33956;-67
2022/08/06 07:03:06;;;;;;;9.02;3.47;;;;;;;26.92;45.09;100127.69;5549752;32;34633;-66
2022/08/06 07:06:12;;;;;;;9.60;3.42;;;;;;;27.20;44.91;100132.44;5549546;32;34041;-68
2022/08/06 07:09:36;;;;;;;9.95;3.37;;;;;;;27.36;44.15;100130.38;5549019;32;34003;-65
2022/08/06 07:12:45;;;;;;;6.28;3.10;;;;;;;27.41;43.50;100136.63;5549810;32;34121;-68
2022/08/06 07:15:56;;;;;;;5.55;3.28;;;;;;;27.51;42.51;100135.75;5548611;32;33486;-67
2022/08/06 07:19:00;;;;;;;3.62;2.75;;;;;;;27.46;42.03;100139.28;5548769;32;32613;-67
2022/08/06 07:22:07;;;;;;;5.72;3.20;;;;;;;27.86;41.30;100132.72;5549385;32;34539;-67
2022/08/06 07:25:13;;;;;;;4.57;3.20;;;;;;;28.29;40.46;100141.00;5549256;32;34631;-68
2022/08/06 07:28:18;;;;;;;3.37;2.90;;;;;;;28.66;39.38;100143.81;5548696;32;34228;-66
2022/08/06 07:31:26;;;;;;;4.87;2.67;;;;;;;28.86;39.36;100140.03;5548157;32;33291;-68
2022/08/06 07:34:40;;;;;;;8.15;4.50;;;;;;;29.93;37.77;100144.66;5550766;32;33782;-67
2022/08/06 07:38:06;;;;;;;3.87;2.80;;;;;;;29.94;37.26;100147.09;5551390;32;34029;-64
2022/08/06 07:41:12;;;;;;;13.20;3.10;;;;;;;29.82;37.74;100151.41;5551607;32;34605;-67
2022/08/06 07:44:15;;;;;;;7.90;2.70;;;;;;;29.76;37.96;100139.75;5551515;32;33954;-66
2022/08/06 07:47:26;;;;;;;6.05;2.97;;;;;;;30.94;36.25;100140.69;5551525;32;34053;-67
2022/08/06 07:50:50;;;;;;;4.85;2.42;;;;;;;31.62;35.09;100144.34;5550961;32;33944;-67
2022/08/06 07:53:54;;;;;;;3.30;2.67;;;;;;;33.04;32.34;100152.19;5550903;32;33503;-68
2022/08/06 07:57:01;;;;;;;3.12;2.50;;;;;;;31.92;33.79;100140.81;5551495;32;33934;-66
2022/08/06 08:00:06;;;;;;;3.37;2.33;;;;;;;31.31;34.89;100147.81;5550920;32;34237;-67
2022/08/06 08:07:02;;;;;;;3.30;2.45;;;;;;;32.62;33.02;100142.72;5551203;32;34726;-64
2022/08/06 08:10:06;;;;;;;5.15;2.40;;;;;;;33.23;31.58;100144.44;5551262;32;33850;-67
2022/08/06 08:13:11;;;;;;;3.20;2.62;;;;;;;33.35;31.62;100147.38;5551415;32;34253;-69
2022/08/06 08:16:15;;;;;;;2.25;1.95;;;;;;;34.45;30.14;100150.16;5550502;32;34478;-68
2022/08/06 08:19:32;;;;;;;6.25;2.10;;;;;;;34.62;29.22;100146.47;5550278;32;32683;-69
2022/08/06 08:22:38;;;;;;;4.45;2.50;;;;;;;34.69;29.68;100146.81;5550915;32;33838;-69
2022/08/06 08:25:51;;;;;;;4.78;2.35;;;;;;;36.11;27.23;100150.09;5550982;32;34020;-67
2022/08/06 08:28:54;;;;;;;4.90;2.15;;;;;;;34.18;29.66;100147.84;5550168;32;32649;-68
2022/08/06 08:31:57;;;;;;;4.60;2.28;;;;;;;35.05;28.33;100148.19;5551131;32;34231;-69
2022/08/06 08:35:02;;;;;;;4.25;2.45;;;;;;;35.90;27.74;100143.84;5550619;32;32468;-67
2022/08/06 08:38:05;;;;;;;4.20;2.35;;;;;;;35.05;28.20;100145.44;5551023;32;34317;-68
2022/08/06 08:41:24;;;;;;;3.50;2.45;;;;;;;35.99;27.22;100139.00;5550965;32;33884;-69
2022/08/06 08:44:49;;;;;;;9.60;2.40;;;;;;;36.64;25.98;100142.78;5550288;32;34389;-68
2022/08/06 08:47:57;;;;;;;5.37;2.30;;;;;;;35.80;26.93;100149.78;5550405;32;33733;-67
2022/08/06 08:51:00;;;;;;;3.50;2.05;;;;;;;37.16;25.42;100150.28;5550666;32;34585;-71
2022/08/06 08:54:09;;;;;;;2.95;2.05;;;;;;;37.53;24.67;100148.97;5550386;32;32424;-68
2022/08/06 08:57:18;;;;;;;9.93;2.20;;;;;;;37.70;24.47;100153.41;5550225;32;33747;-68
2022/08/06 09:00:41;;;;;;;5.57;2.10;;;;;;;37.69;24.21;100149.81;5550755;32;34256;-69
2022/08/06 09:03:52;;;;;;;2.55;1.87;;;;;;;37.92;23.84;100146.44;5550243;32;33828;-69
2022/08/06 09:06:57;;;;;;;4.75;1.98;;;;;;;37.22;24.71;100143.34;5550884;32;33951;-70
2022/08/06 09:10:00;;;;;;;7.95;2.08;;;;;;;38.20;24.23;100150.75;5550780;32;34039;-70
2022/08/06 09:13:05;;;;;;;7.72;4.47;;;;;;;39.37;22.44;100155.44;5549918;32;34108;-69
2022/08/06 09:16:32;;;;;;;3.92;2.00;;;;;;;38.74;23.13;100141.78;5550591;32;33996;-70
2022/08/06 09:19:38;;;;;;;3.60;2.03;;;;;;;38.51;22.41;100149.97;5550471;32;33983;-69
2022/08/06 09:22:48;;;;;;;1.90;1.73;;;;;;;39.54;21.19;100149.44;5550669;32;34043;-68
2022/08/06 09:25:53;;;;;;;4.87;1.95;;;;;;;38.62;22.52;100148.25;5550936;32;34016;-67
2022/08/06 09:29:00;;;;;;;5.87;1.90;;;;;;;39.13;21.74;100148.19;5549743;32;33559;-70
2022/08/06 09:32:37;;;;;;;4.25;1.90;;;;;;;38.90;22.12;100141.75;5539507;32;32329;-65
2022/08/06 09:36:05;;;;;;;5.00;1.50;;;;;;;39.62;20.74;100150.38;5550728;32;34767;-66
2022/08/06 09:39:29;;;;;;;6.90;1.67;;;;;;;40.21;20.08;100136.00;5550184;32;33930;-66
2022/08/06 09:42:50;;;;;;;4.68;1.83;;;;;;;39.07;21.56;100142.13;5549805;32;32581;-66
2022/08/06 09:45:53;;;;;;;5.53;1.70;;;;;;;37.92;22.39;100129.81;5550580;32;34032;-67
2022/08/06 09:49:02;;;;;;;3.72;1.58;;;;;;;38.32;21.78;100136.03;5550631;32;34058;-66
2022/08/06 09:52:25;;;;;;;4.15;1.77;;;;;;;39.83;20.10;100134.12;5550125;32;34111;-67
2022/08/06 09:55:31;;;;;;;2.85;1.62;;;;;;;39.83;19.33;100140.50;5550089;32;34410;-68
2022/08/06 09:58:43;;;;;;;3.95;1.80;;;;;;;40.55;19.12;100134.94;5549970;32;32407;-65
2022/08/06 10:01:47;;;;;;;5.53;1.80;;;;;;;40.26;19.67;100132.91;5550361;32;34783;-67
2022/08/06 10:04:52;;;;;;;5.72;2.03;;;;;;;41.19;18.82;100125.53;5549948;32;33078;-66
2022/08/06 10:08:17;;;;;;;2.92;2.00;;;;;;;39.69;20.05;100131.87;5550609;32;34376;-68
2022/08/06 10:11:39;;;;;;;2.45;1.50;;;;;;;42.22;17.85;100143.28;5549801;32;33728;-68
2022/08/06 10:14:51;;;;;;;8.52;2.03;;;;;;;39.99;19.57;100132.03;5549373;32;32537;-65
2022/08/06 10:17:57;;;;;;;5.47;1.70;;;;;;;39.96;19.58;100128.03;5550420;32;34232;-67
2022/08/06 10:21:06;;;;;;;3.58;1.80;;;;;;;41.42;18.28;100127.34;5550616;32;35179;-69
2022/08/06 10:24:19;;;;;;;3.97;1.90;;;;;;;42.12;17.76;100138.41;5549538;32;34028;-69
2022/08/06 10:27:43;;;;;;;4.60;1.85;;;;;;;43.82;16.31;100127.31;5484920;32;2098752;-69
2022/08/06 10:30:52;;;;;;;2.00;1.67;;;;;;;42.13;17.22;100123.28;5550328;32;34527;-68
2022/08/06 10:34:02;;;;;;;3.60;1.62;;;;;;;42.32;17.53;100111.91;5549212;32;32208;-65
2022/08/06 10:37:09;;;;;;;2.78;1.80;;;;;;;40.68;18.79;100116.88;5549246;32;32777;-66
2022/08/06 10:40:35;;;;;;;5.40;1.75;;;;;;;40.55;19.06;100115.47;5549480;32;34163;-66
2022/08/06 10:43:40;;;;;;;2.83;1.58;;;;;;;39.62;19.94;100120.62;5549315;32;33873;-67
2022/08/06 10:46:47;;;;;;;;;;;;;;;41.20;18.22;100106.84;5550517;32;34682;-67
2022/08/06 10:49:52;;;;;;;2.45;1.70;;;;;;;43.51;16.54;100117.72;5549101;32;34965;-67
2022/08/06 10:53:16;;;;;;;5.55;1.70;;;;;;;43.79;16.39;100119.75;5550044;32;33855;-65
2022/08/06 10:56:47;;;;;;;5.60;1.75;;;;;;;43.31;17.06;100123.62;5550328;32;33967;-66
2022/08/06 10:59:50;;;;;;;2.75;1.80;;;;;;;41.46;18.47;100119.88;5549995;32;34515;-67
2022/08/06 11:03:16;;;;;;;2.30;1.70;;;;;;;41.29;18.44;100112.91;5550011;32;34228;-67
2022/08/06 11:06:28;;;;;;;3.00;1.83;;;;;;;45.36;15.57;100108.66;5549058;32;33904;-68
2022/08/06 11:10:02;;;;;;;3.80;1.83;;;;;;;48.25;13.44;100108.50;5549604;32;33916;-67
2022/08/06 11:13:29;;;;;;;3.10;1.85;;;;;;;47.67;13.37;100104.25;5548935;32;32685;-67
2022/08/06 11:16:57;;;;;;;5.93;2.00;;;;;;;46.01;14.60;100092.97;5537912;32;33292;-68
2022/08/06 11:20:00;;;;;;;5.00;1.80;;;;;;;45.62;15.69;100090.47;5548749;32;34715;-67
2022/08/06 11:23:16;;;;;;;2.62;1.98;;;;;;;44.10;16.79;100091.03;5549448;32;34695;-68
2022/08/06 11:26:44;;;;;;;2.70;1.95;;;;;;;45.05;16.36;100092.81;5549352;32;33884;-68
2022/08/06 11:30:09;;;;;;;4.00;1.80;;;;;;;45.78;15.33;100087.16;5548474;32;32793;-66
2022/08/06 11:33:44;;;;;;;5.53;1.98;;;;;;;43.67;17.01;100074.22;5549301;32;34668;-66
2022/08/06 11:36:56;;;;;;;3.60;2.00;;;;;;;42.55;18.10;100075.41;5549346;32;33983;-68
2022/08/06 11:40:12;;;;;;;3.67;2.05;;;;;;;42.59;18.53;100076.22;5548547;32;33980;-68
2022/08/06 11:43:51;;;;;;;3.40;1.90;;;;;;;43.87;17.30;100068.25;5549409;32;33986;-68
2022/08/06 11:47:06;;;;;;;2.65;1.73;;;;;;;45.61;15.83;100068.47;5536506;32;34100;-68
2022/08/06 11:50:22;;;;;;;2.33;2.10;;;;;;;44.04;16.78;100067.47;5549204;32;34605;-67
2022/08/06 11:53:37;;;;;;;6.05;2.10;;;;;;;42.83;18.02;100063.63;5548004;32;32418;-68
2022/08/06 11:57:09;;;;;;;4.68;1.98;;;;;;;44.49;16.56;100080.56;5548871;32;34030;-69
2022/08/06 12:00:26;;;;;;;10.95;2.50;;;;;;;46.07;15.88;100071.69;5548193;32;33945;-69
2022/08/06 12:03:37;;;;;;;2.83;2.45;;;;;;;44.08;18.12;100074.63;5548800;32;34691;-67
2022/08/06 12:06:47;;;;;;;7.70;2.90;;;;;;;41.36;22.07;100059.25;5548755;32;34183;-67
2022/08/06 12:10:06;;;;;;;3.60;2.60;;;;;;;37.89;26.84;100053.81;5547833;32;33288;-67
2022/08/06 12:13:41;;;;;;;7.15;2.75;;;;;;;39.20;26.23;100054.00;5535169;32;33218;-69
2022/08/06 12:17:10;;;;;;;5.20;2.80;;;;;;;42.85;21.43;100062.00;5547889;32;33168;-67
2022/08/06 12:20:14;;;;;;;6.30;3.00;;;;;;;41.25;23.39;100066.72;5538205;32;33338;-68
2022/08/06 12:23:37;;;;;;;8.25;3.37;;;;;;;41.74;22.79;100055.25;5550370;32;33215;-68
2022/08/06 12:26:58;;;;;;;11.02;2.92;;;;;;;42.52;22.29;100053.87;5551518;32;34671;-67
2022/08/06 12:30:03;;;;;;;9.90;3.55;;;;;;;41.74;22.70;100067.22;5551551;32;34706;-68
2022/08/06 12:33:09;;;;;;;;;;;;;;;40.37;24.51;100050.47;5551767;32;34101;-67
2022/08/06 12:36:19;;;;;;;7.75;4.05;;;;;;;40.13;24.94;100053.66;5551725;32;34859;-67
2022/08/06 12:43:05;;;;;;;9.77;4.28;;;;;;;39.79;25.72;100056.31;5551229;32;35288;-68
2022/08/06 12:46:17;;;;;;;9.38;3.87;;;;;;;38.94;26.80;100065.75;5551359;32;34391;-67
2022/08/06 12:49:31;;;;;;;6.87;4.28;;;;;;;39.32;26.22;100076.06;5551230;32;34127;-67
2022/08/06 12:52:44;;;;;;;8.90;4.45;;;;;;;39.86;25.69;100072.28;5550372;32;32935;-68
2022/08/06 12:55:53;;;;;;;11.55;4.50;;;;;;;39.75;26.03;100080.44;5551099;32;35118;-67
2022/08/06 12:59:04;;;;;;;11.82;3.92;;;;;;;40.75;24.72;100068.88;5551146;32;34715;-67
2022/08/06 13:02:07;;;;;;;16.95;4.20;;;;;;;41.01;24.38;100084.69;5550141;32;32487;-67
2022/08/06 13:05:25;;;;;;;7.22;4.40;;;;;;;39.57;26.10;100064.59;5551001;32;34038;-68
2022/08/06 13:08:48;;;;;;;6.68;4.60;;;;;;;38.77;27.17;100080.06;5550043;32;32914;-67
2022/08/06 13:11:53;;;;;;;10.32;4.45;;;;;;;37.33;29.42;100078.03;5538017;32;33140;-67
2022/08/06 13:14:58;;;;;;;7.12;4.62;;;;;;;35.37;32.27;100072.97;5551041;32;34590;-67
2022/08/06 13:18:21;;;;;;;5.75;4.50;;;;;;;36.66;30.28;100081.59;5551060;32;34073;-66
2022/08/06 13:21:45;;;;;;;11.90;4.47;;;;;;;39.29;26.56;100068.44;5550873;32;34452;-67
2022/08/06 13:25:19;;;;;;;6.65;4.43;;;;;;;39.05;26.77;100074.31;5549911;32;32974;-67
2022/08/06 13:29:22;;;;;;;6.75;4.57;;;;;;;39.75;26.17;100069.31;5539650;32;33920;-67
2022/08/06 13:32:45;;;;;;;9.55;4.80;;;;;;;41.32;23.95;100069.56;5550923;32;34567;-67
2022/08/06 13:36:07;;;;;;;8.80;4.28;;;;;;;40.32;24.86;100059.94;5550836;32;34073;-66
2022/08/06 13:39:32;;;;;;;11.05;4.57;;;;;;;40.31;25.01;100071.44;5550878;32;34310;-67
2022/08/06 13:42:55;;;;;;;5.43;4.12;;;;;;;40.95;24.18;100064.78;5549924;32;33944;-66
2022/08/06 13:46:27;;;;;;;20.95;4.78;;;;;;;40.07;25.16;100069.84;5550497;32;34029;-68
2022/08/06 13:49:35;;;;;;;19.45;4.43;;;;;;;39.41;25.95;100062.72;5550086;32;33311;-66
2022/08/06 13:52:42;;;;;;;5.70;4.57;;;;;;;40.33;24.76;100049.59;5549742;32;34630;-66
2022/08/06 13:55:46;;;;;;;6.28;4.15;;;;;;;40.13;24.95;100062.00;5550075;32;32704;-67
2022/08/06 13:59:04;;;;;;;5.97;4.28;;;;;;;37.68;28.20;100064.34;5550358;32;35329;-69
2022/08/06 14:02:08;;;;;;;11.00;4.30;;;;;;;38.48;27.41;100077.81;5550782;32;34256;-69
2022/08/06 14:05:13;;;;;;;5.43;4.20;;;;;;;38.19;27.91;100071.59;5549994;32;33850;-66
2022/08/06 14:08:25;;;;;;;4.25;3.62;;;;;;;38.49;27.67;100073.91;5550092;32;33140;-70
2022/08/06 14:11:37;;;;;;;8.38;3.67;;;;;;;38.81;27.44;100082.88;5549420;32;33027;-68
2022/08/06 14:14:40;;;;;;;7.70;3.70;;;;;;;37.59;29.16;100078.38;5550083;32;34127;-66
2022/08/06 14:17:52;;;;;;;8.90;3.45;;;;;;;37.96;28.65;100069.78;5549836;32;32789;-66
2022/08/06 14:20:56;;;;;;;5.10;3.67;;;;;;;38.57;27.67;100075.66;5550042;32;33969;-68
2022/08/06 14:24:00;;;;;;;5.15;3.30;;;;;;;38.98;27.56;100080.50;5550419;32;34035;-67
2022/08/06 14:27:09;;;;;;;5.45;3.15;;;;;;;37.73;28.91;100078.72;5549616;32;34694;-66
2022/08/06 14:30:19;;;;;;;7.10;3.50;;;;;;;35.41;32.52;100073.88;5549251;32;32628;-67
2022/08/06 14:33:34;;;;;;;5.62;3.10;;;;;;;35.77;32.12;100078.72;5549670;32;32458;-67
2022/08/06 14:36:40;;;;;;;6.20;3.50;;;;;;;35.19;33.19;100077.84;5549576;32;32707;-66
2022/08/06 14:39:43;;;;;;;4.85;2.87;;;;;;;34.28;34.73;100086.09;5550117;32;33918;-67
2022/08/06 14:46:26;;;;;;;2.72;2.42;;;;;;;33.95;35.66;100103.22;5550174;32;33961;-65
2022/08/06 14:49:33;;;;;;;4.12;2.47;;;;;;;32.88;37.90;100096.06;5549388;32;33102;-65
2022/08/06 14:52:53;;;;;;;2.55;2.35;;;;;;;32.25;39.62;100098.19;5549285;32;34066;-65
2022/08/06 14:55:57;;;;;;;5.40;2.35;;;;;;;31.91;40.28;100111.75;5550044;32;34262;-67
2022/08/06 14:59:11;;;;;;;5.82;2.70;;;;;;;31.30;41.57;100110.56;5549259;32;34583;-67
2022/08/06 15:02:15;;;;;;;8.23;2.60;;;;;;;31.30;41.79;100120.72;5548892;32;34502;-67
2022/08/06 15:05:18;;;;;;;5.82;2.15;;;;;;;31.21;42.40;100131.63;5550170;32;34642;-66
2022/08/06 15:08:41;;;;;;;5.40;2.28;;;;;;;30.93;43.12;100125.41;5549780;32;34597;-67
2022/08/06 15:11:50;;;;;;;3.35;2.12;;;;;;;31.18;42.69;100134.97;5548823;32;32718;-69
2022/08/06 15:15:04;;;;;;;4.82;2.50;;;;;;;30.81;43.67;100132.50;5548991;32;34031;-66